Time;durP1;ratioP1;P1;durP2;ratioP2;P2;SDS_P1;SDS_P2;PMS_P1;PMS_P2;Temp;Humidity;BMP_temperature;BMP_pressure;BME280_temperature;BME280_humidity;BME280_pressure;Samples;Min_cycle;Max_cycle;Signal;HPM_P1;HPM_P2
2022/02/20 00:00:11;;;;;;;7.07;1.00;;;5.90;93.20;;;;;;2066983;28;20062;-89
2022/02/20 00:01:12;;;;;;;3.33;0.70;;;5.90;93.20;;;;;;2063285;28;20440;-89
2022/02/20 00:02:14;;;;;;;6.30;1.10;;;5.80;93.20;;;;;;2073380;28;20050;-89
2022/02/20 00:03:14;;;;;;;3.25;0.57;;;5.80;93.20;;;;;;2058531;28;20216;-88
2022/02/20 00:04:15;;;;;;;4.30;0.57;;;5.90;93.20;;;;;;2073819;28;20123;-87
2022/02/20 00:05:15;;;;;;;4.88;1.02;;;5.90;93.20;;;;;;2089582;28;20056;-88
2022/02/20 00:06:17;;;;;;;3.15;0.70;;;5.90;93.20;;;;;;2053913;28;20036;-89
2022/02/20 00:07:17;;;;;;;4.45;0.70;;;5.90;93.20;;;;;;2070906;28;20043;-89
2022/02/20 00:08:18;;;;;;;6.55;1.30;;;5.90;93.20;;;;;;2076804;28;20129;-88
2022/02/20 00:09:19;;;;;;;5.60;0.80;;;5.90;93.20;;;;;;2062243;28;20058;-88
2022/02/20 00:10:19;;;;;;;3.33;0.75;;;5.90;93.20;;;;;;2056497;28;20035;-89
2022/02/20 00:11:20;;;;;;;5.13;0.75;;;5.90;93.10;;;;;;2046983;28;20038;-89
2022/02/20 00:12:21;;;;;;;4.28;1.00;;;5.90;93.40;;;;;;2051982;28;20035;-89
2022/02/20 00:13:21;;;;;;;4.53;0.88;;;5.90;93.10;;;;;;2057113;28;20062;-89
2022/02/20 00:14:22;;;;;;;3.10;0.60;;;5.90;93.10;;;;;;2060843;28;20087;-89
2022/02/20 00:15:24;;;;;;;4.95;0.60;;;5.90;93.10;;;;;;2055540;28;20043;-89
2022/02/20 00:16:25;;;;;;;3.35;0.80;;;5.90;93.10;;;;;;2060416;28;20052;-88
2022/02/20 00:17:25;;;;;;;4.43;0.68;;;5.90;93.10;;;;;;2056971;28;20047;-88
2022/02/20 00:18:27;;;;;;;3.25;0.80;;;5.90;93.10;;;;;;2062242;28;20038;-89
2022/02/20 00:19:28;;;;;;;4.65;0.90;;;5.90;93.10;;;;;;2057817;28;20043;-89
2022/02/20 00:20:30;;;;;;;5.40;0.82;;;5.80;93.10;;;;;;2064810;28;20042;-89
2022/02/20 00:21:30;;;;;;;4.82;1.00;;;5.80;93.10;;;;;;2060680;28;20042;-88
2022/02/20 00:22:31;;;;;;;6.30;0.90;;;5.80;93.00;;;;;;2064730;28;20085;-88
2022/02/20 00:23:32;;;;;;;4.47;0.77;;;5.80;93.00;;;;;;2059846;28;20066;-88
2022/02/20 00:24:32;;;;;;;3.30;0.82;;;5.80;93.00;;;;;;2052867;28;20097;-88
2022/02/20 00:25:35;;;;;;;2.05;0.50;;;5.80;93.00;;;;;;2057611;28;20125;-89
2022/02/20 00:26:35;;;;;;;4.20;0.80;;;5.80;93.00;;;;;;2063045;28;20042;-88
2022/02/20 00:27:36;;;;;;;2.40;0.55;;;5.80;93.00;;;;;;2070406;28;20093;-89
2022/02/20 00:28:38;;;;;;;4.07;0.60;;;5.70;93.00;;;;;;2090662;28;20082;-89
2022/02/20 00:29:38;;;;;;;3.30;0.75;;;5.70;93.00;;;;;;2065576;28;20104;-88
2022/02/20 00:30:39;;;;;;;10.48;1.13;;;5.70;93.00;;;;;;2078637;28;20058;-89
2022/02/20 00:31:40;;;;;;;4.78;0.70;;;5.70;92.90;;;;;;2101758;28;20109;-90
2022/02/20 00:32:40;;;;;;;2.35;0.68;;;5.60;92.90;;;;;;2086813;28;20132;-88
2022/02/20 00:33:41;;;;;;;3.55;0.90;;;5.60;92.90;;;;;;2063205;28;20039;-88
2022/02/20 00:34:42;;;;;;;3.55;0.60;;;5.60;93.00;;;;;;2052259;28;20038;-88
2022/02/20 00:35:42;;;;;;;6.03;0.80;;;5.60;93.00;;;;;;2096332;28;20056;-88
2022/02/20 00:36:43;;;;;;;4.55;0.80;;;5.60;93.00;;;;;;2100236;28;20032;-89
2022/02/20 00:37:44;;;;;;;3.38;0.70;;;5.50;93.20;;;;;;2055426;28;20043;-88
2022/02/20 00:38:44;;;;;;;5.55;0.73;;;5.50;92.90;;;;;;2068027;28;20058;-89
2022/02/20 00:39:45;;;;;;;2.70;0.60;;;5.50;92.90;;;;;;2068196;28;20069;-89
2022/02/20 00:40:45;;;;;;;1.95;0.50;;;5.50;93.00;;;;;;2056974;28;20039;-89
2022/02/20 00:41:46;;;;;;;4.25;0.90;;;5.50;93.00;;;;;;2066352;28;20123;-89
2022/02/20 00:42:47;;;;;;;4.63;0.80;;;5.40;92.90;;;;;;2103194;28;20032;-89
2022/02/20 00:43:48;;;;;;;3.17;0.80;;;5.40;92.90;;;;;;2091826;28;20040;-89
2022/02/20 00:44:48;;;;;;;3.70;0.80;;;5.40;92.90;;;;;;2046294;28;20074;-88
2022/02/20 00:45:49;;;;;;;3.42;0.70;;;5.40;93.00;;;;;;2040217;28;20040;-89
2022/02/20 00:46:50;;;;;;;2.63;0.60;;;5.40;92.90;;;;;;2057756;28;20050;-89
2022/02/20 00:47:51;;;;;;;3.10;0.70;;;5.40;92.90;;;;;;2065068;28;20117;-89
2022/02/20 00:48:51;;;;;;;3.38;0.70;;;5.40;92.90;;;;;;2068357;28;20111;-90
2022/02/20 00:49:52;;;;;;;4.82;0.90;;;5.30;92.90;;;;;;2067999;28;20064;-89
2022/02/20 00:50:53;;;;;;;3.75;0.68;;;5.30;92.90;;;;;;2059817;28;20564;-88
2022/02/20 00:51:53;;;;;;;4.00;0.80;;;5.40;92.90;;;;;;2062985;28;20054;-89
2022/02/20 00:52:54;;;;;;;2.40;0.88;;;5.30;92.90;;;;;;2092480;28;20033;-89
2022/02/20 00:53:55;;;;;;;2.38;0.57;;;5.30;92.90;;;;;;2067141;28;20063;-88
2022/02/20 00:54:56;;;;;;;2.92;0.60;;;5.30;92.90;;;;;;2068980;28;20504;-89
2022/02/20 00:55:57;;;;;;;3.58;0.50;;;5.30;92.90;;;;;;2073135;28;20113;-89
2022/02/20 00:56:57;;;;;;;4.78;0.90;;;5.30;92.90;;;;;;2082238;28;20518;-89
2022/02/20 00:57:58;;;;;;;4.93;0.70;;;5.30;92.90;;;;;;2082104;28;20036;-89
2022/02/20 00:58:58;;;;;;;4.30;0.73;;;5.30;92.90;;;;;;2060146;28;20027;-89
2022/02/20 00:59:59;;;;;;;3.78;0.60;;;5.30;93.10;;;;;;2060010;28;20039;-90
2022/02/20 01:01:00;;;;;;;2.88;0.60;;;5.30;92.90;;;;;;2050813;28;20031;-89
2022/02/20 01:02:00;;;;;;;2.83;0.60;;;5.30;92.90;;;;;;2058819;28;20046;-89
2022/02/20 01:03:01;;;;;;;2.58;0.50;;;5.30;92.90;;;;;;2058386;28;20027;-88
2022/02/20 01:04:02;;;;;;;3.92;0.52;;;5.20;92.80;;;;;;2059656;28;20512;-89
2022/02/20 01:05:04;;;;;;;2.40;0.50;;;5.30;92.90;;;;;;2065515;28;20099;-88
2022/02/20 01:06:04;;;;;;;4.53;0.70;;;5.30;92.90;;;;;;2064246;28;20412;-89
2022/02/20 01:07:05;;;;;;;4.32;0.77;;;5.20;92.80;;;;;;2055276;28;20063;-88
2022/02/20 01:08:07;;;;;;;2.17;0.60;;;5.30;92.80;;;;;;2055572;28;20473;-88
2022/02/20 01:09:08;;;;;;;3.80;0.47;;;5.20;92.80;;;;;;2058127;28;20066;-89
2022/02/20 01:10:11;;;;;;;3.00;0.50;;;5.30;92.80;;;;;;2084111;28;20469;-89
2022/02/20 01:11:11;;;;;;;3.20;0.65;;;5.30;92.80;;;;;;2064880;28;20042;-89
2022/02/20 01:12:12;;;;;;;3.28;0.75;;;5.30;92.80;;;;;;2065774;28;20129;-89
2022/02/20 01:13:14;;;;;;;2.92;0.57;;;5.30;92.80;;;;;;2063168;28;20150;-89
2022/02/20 01:14:15;;;;;;;3.90;0.50;;;5.30;92.80;;;;;;2084928;28;20032;-88
2022/02/20 01:15:15;;;;;;;3.33;0.55;;;5.20;92.80;;;;;;2063633;28;20035;-89
2022/02/20 01:16:16;;;;;;;2.63;0.45;;;5.30;92.80;;;;;;2065170;28;20394;-89
2022/02/20 01:17:17;;;;;;;2.00;0.50;;;5.30;92.80;;;;;;2069760;28;20044;-89
2022/02/20 01:18:18;;;;;;;2.20;0.45;;;5.30;92.80;;;;;;2074467;28;20043;-89
2022/02/20 01:19:19;;;;;;;4.03;0.85;;;5.30;92.80;;;;;;2047135;28;20410;-89
2022/02/20 01:20:19;;;;;;;3.97;0.60;;;5.30;92.70;;;;;;2043541;28;20063;-89
2022/02/20 01:21:20;;;;;;;2.17;0.50;;;5.30;92.70;;;;;;2062004;28;20525;-89
2022/02/20 01:22:21;;;;;;;4.40;0.73;;;5.30;92.70;;;;;;2047278;28;20508;-89
2022/02/20 01:23:21;;;;;;;2.85;0.40;;;5.30;92.70;;;;;;2051339;28;20038;-89
2022/02/20 01:24:22;;;;;;;3.45;0.47;;;5.30;92.70;;;;;;2039929;28;20195;-89
2022/02/20 01:25:23;;;;;;;5.43;0.80;;;5.30;92.70;;;;;;2043624;28;20035;-89
2022/02/20 01:26:23;;;;;;;2.78;0.47;;;5.30;92.70;;;;;;2049903;28;20514;-89
2022/02/20 01:27:24;;;;;;;2.92;0.50;;;5.30;92.70;;;;;;2054054;28;20040;-89
2022/02/20 01:28:25;;;;;;;2.85;0.50;;;5.30;92.70;;;;;;2053345;28;20525;-88
2022/02/20 01:29:26;;;;;;;2.72;0.68;;;5.30;92.70;;;;;;2065092;28;20133;-88
2022/02/20 01:30:26;;;;;;;3.67;0.40;;;5.30;92.70;;;;;;2070089;28;20057;-89
2022/02/20 01:31:27;;;;;;;2.60;0.43;;;5.30;92.70;;;;;;2061682;28;20043;-89
2022/02/20 01:32:28;;;;;;;1.45;0.50;;;5.30;92.70;;;;;;2063621;28;20579;-89
2022/02/20 01:33:28;;;;;;;3.22;0.50;;;5.30;92.70;;;;;;2054437;28;20067;-89
2022/02/20 01:34:29;;;;;;;2.58;0.70;;;5.30;92.70;;;;;;2052699;28;20086;-89
2022/02/20 01:35:30;;;;;;;3.25;0.60;;;5.30;92.70;;;;;;2060296;28;20046;-89
2022/02/20 01:36:30;;;;;;;2.45;0.60;;;5.40;92.70;;;;;;2055747;28;20547;-89
2022/02/20 01:37:31;;;;;;;3.70;0.60;;;5.30;92.70;;;;;;2040749;28;20036;-89
2022/02/20 01:38:32;;;;;;;2.85;0.60;;;5.30;92.70;;;;;;2055441;28;20044;-89
2022/02/20 01:39:33;;;;;;;3.63;0.50;;;5.30;92.70;;;;;;2060881;28;20040;-90
2022/02/20 01:40:34;;;;;;;1.42;0.50;;;5.30;92.60;;;;;;2060538;28;20042;-89
2022/02/20 01:41:35;;;;;;;2.42;0.65;;;5.40;92.70;;;;;;2059097;28;20042;-89
2022/02/20 01:42:36;;;;;;;1.40;0.45;;;5.40;92.70;;;;;;2039116;28;20593;-89
2022/02/20 01:43:36;;;;;;;3.08;0.52;;;5.40;92.70;;;;;;2052886;28;20497;-89
2022/02/20 01:44:37;;;;;;;2.55;0.50;;;5.40;92.70;;;;;;2065901;28;20044;-88
2022/02/20 01:45:39;;;;;;;2.72;0.70;;;5.40;92.60;;;;;;2063596;28;20041;-89
2022/02/20 01:46:45;;;;;;;1.77;0.50;;;5.30;92.60;;;;;;2050449;28;20043;-89
2022/02/20 01:47:45;;;;;;;2.88;0.60;;;5.30;92.60;;;;;;2068758;28;20029;-89
2022/02/20 01:48:48;;;;;;;2.28;0.50;;;5.40;92.60;;;;;;2076457;28;20472;-89
2022/02/20 01:49:49;;;;;;;2.33;0.55;;;5.40;92.60;;;;;;2053616;28;20027;-89
2022/02/20 01:50:49;;;;;;;4.20;0.60;;;5.40;92.60;;;;;;2096888;28;20576;-89
2022/02/20 01:51:50;;;;;;;2.95;0.40;;;5.40;92.60;;;;;;2098389;28;20044;-89
2022/02/20 01:52:50;;;;;;;3.10;0.55;;;5.40;92.60;;;;;;2062945;28;20514;-89
2022/02/20 01:53:51;;;;;;;2.90;0.55;;;5.40;92.60;;;;;;2073261;28;20043;-89
2022/02/20 01:54:52;;;;;;;2.58;0.40;;;5.40;92.60;;;;;;2071852;28;20074;-89
2022/02/20 01:55:53;;;;;;;3.35;0.60;;;5.40;92.60;;;;;;2064119;28;20083;-89
2022/02/20 01:56:55;;;;;;;2.72;0.52;;;5.40;92.60;;;;;;2067504;28;20048;-89
2022/02/20 01:57:56;;;;;;;1.75;0.60;;;5.40;92.60;;;;;;2064754;28;20092;-89
2022/02/20 01:58:57;;;;;;;2.22;0.50;;;5.30;92.60;;;;;;2058982;28;20498;-89
2022/02/20 02:00:00;;;;;;;2.70;0.52;;;5.40;92.60;;;;;;2072616;28;20031;-89
2022/02/20 02:01:01;;;;;;;3.00;0.57;;;5.40;92.60;;;;;;2081692;28;20048;-89
2022/02/20 02:02:01;;;;;;;2.35;0.65;;;5.40;92.60;;;;;;2066215;28;20042;-89
2022/02/20 02:03:02;;;;;;;4.13;0.70;;;5.40;92.60;;;;;;2064186;28;20509;-89
2022/02/20 02:04:04;;;;;;;0.80;0.32;;;5.40;92.60;;;;;;2066285;28;20077;-90
2022/02/20 02:05:05;;;;;;;0.90;0.43;;;5.40;92.60;;;;;;2069258;28;20041;-89
2022/02/20 02:06:06;;;;;;;1.25;0.55;;;5.40;92.60;;;;;;2059503;28;20543;-89
2022/02/20 02:07:06;;;;;;;1.65;0.50;;;5.40;92.60;;;;;;2039682;28;20134;-89
2022/02/20 02:08:07;;;;;;;0.90;0.40;;;5.40;92.60;;;;;;2046847;28;20035;-89
2022/02/20 02:09:08;;;;;;;1.95;0.40;;;5.40;92.60;;;;;;2052316;28;20052;-88
2022/02/20 02:10:09;;;;;;;3.38;0.63;;;5.40;92.60;;;;;;2094984;28;20037;-89
2022/02/20 02:11:12;;;;;;;2.08;0.40;;;5.40;92.60;;;;;;2059217;28;20035;-88
2022/02/20 02:12:12;;;;;;;2.97;0.50;;;5.40;92.60;;;;;;2072825;28;20028;-89
2022/02/20 02:13:13;;;;;;;1.42;0.35;;;5.40;92.60;;;;;;2062005;28;20186;-90
2022/02/20 02:14:14;;;;;;;1.10;0.30;;;5.40;92.50;;;;;;2064795;28;20038;-89
2022/02/20 02:15:15;;;;;;;0.95;0.30;;;5.40;92.50;;;;;;2060452;28;20118;-89
2022/02/20 02:16:15;;;;;;;1.27;0.38;;;5.40;92.50;;;;;;2064043;28;20042;-89
2022/02/20 02:17:16;;;;;;;1.40;0.30;;;5.40;92.50;;;;;;2097829;28;20032;-89
2022/02/20 02:18:17;;;;;;;1.67;0.40;;;5.40;92.50;;;;;;2094893;28;20075;-89
2022/02/20 02:19:18;;;;;;;3.10;0.38;;;5.40;92.50;;;;;;2085057;28;20085;-89
2022/02/20 02:20:18;;;;;;;2.05;0.32;;;5.40;92.50;;;;;;2050534;28;20620;-89
2022/02/20 02:21:19;;;;;;;1.73;0.45;;;5.40;92.50;;;;;;2083646;28;20042;-89
2022/02/20 02:22:21;;;;;;;1.58;0.50;;;5.40;92.50;;;;;;2084976;28;20041;-89
2022/02/20 02:23:22;;;;;;;1.30;0.20;;;5.40;92.50;;;;;;2066705;28;20393;-88
2022/02/20 02:24:23;;;;;;;1.13;0.30;;;5.40;92.50;;;;;;2059971;28;20053;-89
2022/02/20 02:25:25;;;;;;;4.65;0.40;;;5.40;92.50;;;;;;2072110;28;20472;-89
2022/02/20 02:26:26;;;;;;;1.05;0.30;;;5.40;92.50;;;;;;2099101;28;20052;-88
2022/02/20 02:27:27;;;;;;;1.35;0.30;;;5.40;92.50;;;;;;2099209;28;20040;-88
2022/02/20 02:28:28;;;;;;;1.05;0.40;;;5.40;92.40;;;;;;2065158;28;20046;-89
2022/02/20 02:29:28;;;;;;;0.98;0.22;;;5.40;92.40;;;;;;2073064;28;20043;-88
2022/02/20 02:30:29;;;;;;;1.98;0.38;;;5.40;92.40;;;;;;2083778;28;20086;-89
2022/02/20 02:31:30;;;;;;;1.10;0.40;;;5.40;92.40;;;;;;2080188;28;20059;-89
2022/02/20 02:32:31;;;;;;;1.80;0.30;;;5.40;92.40;;;;;;2079719;28;20121;-89
2022/02/20 02:33:33;;;;;;;1.50;0.20;;;5.40;92.40;;;;;;2047191;28;20062;-89
2022/02/20 02:34:34;;;;;;;1.67;0.30;;;5.40;92.40;;;;;;2044980;28;20027;-89
2022/02/20 02:35:35;;;;;;;0.45;0.30;;;5.40;92.40;;;;;;2074932;28;20196;-90
2022/02/20 02:36:35;;;;;;;2.05;0.43;;;5.40;92.40;;;;;;2047574;28;20047;-89
2022/02/20 02:37:36;;;;;;;2.13;0.40;;;5.40;92.40;;;;;;2051663;28;20587;-89
2022/02/20 02:38:37;;;;;;;1.65;0.50;;;5.40;92.40;;;;;;2056859;28;20059;-89
2022/02/20 02:39:39;;;;;;;0.50;0.30;;;5.40;92.40;;;;;;2061767;28;20042;-89
2022/02/20 02:40:39;;;;;;;2.30;0.50;;;5.40;92.40;;;;;;2055884;28;20031;-89
2022/02/20 02:41:40;;;;;;;0.95;0.35;;;5.40;92.40;;;;;;2043516;28;20515;-89
2022/02/20 02:42:41;;;;;;;2.47;0.50;;;5.40;92.40;;;;;;2043687;28;20054;-89
2022/02/20 02:43:42;;;;;;;1.38;0.57;;;5.40;92.40;;;;;;2055476;28;20038;-89
2022/02/20 02:44:42;;;;;;;3.60;0.60;;;5.40;92.40;;;;;;2065886;28;20042;-88
2022/02/20 02:45:43;;;;;;;1.27;0.47;;;5.50;92.40;;;;;;2063227;28;20566;-89
2022/02/20 02:46:44;;;;;;;0.50;0.30;;;5.50;92.40;;;;;;2068797;28;20126;-89
2022/02/20 02:47:46;;;;;;;5.22;0.90;;;5.40;92.40;;;;;;2063270;28;20062;-89
2022/02/20 02:48:48;;;;;;;2.17;0.50;;;5.40;92.40;;;;;;2077756;28;20047;-90
2022/02/20 02:49:49;;;;;;;1.63;0.50;;;5.40;92.30;;;;;;2066221;28;20441;-88
2022/02/20 02:50:50;;;;;;;1.45;0.30;;;5.40;92.30;;;;;;2065625;28;20062;-89
2022/02/20 02:51:51;;;;;;;0.63;0.30;;;5.40;92.30;;;;;;2066219;28;20586;-89
2022/02/20 02:52:52;;;;;;;1.20;0.50;;;5.40;92.30;;;;;;2063522;28;20034;-89
2022/02/20 02:53:56;;;;;;;1.38;0.30;;;5.40;92.60;;;;;;2053874;28;20437;-89
2022/02/20 02:54:56;;;;;;;1.10;0.40;;;5.40;92.30;;;;;;2068862;28;20044;-89
2022/02/20 02:55:57;;;;;;;1.35;0.40;;;5.40;92.40;;;;;;2068860;28;20511;-89
2022/02/20 02:56:58;;;;;;;3.85;0.50;;;5.40;92.40;;;;;;2066982;28;20096;-89
2022/02/20 02:57:59;;;;;;;1.33;0.30;;;5.50;92.40;;;;;;2074677;28;20120;-89
2022/02/20 02:59:00;;;;;;;0.93;0.38;;;5.50;92.40;;;;;;2062500;28;20105;-89
2022/02/20 03:00:00;;;;;;;1.05;0.45;;;5.50;92.40;;;;;;2059330;28;20043;-89
2022/02/20 03:01:01;;;;;;;0.98;0.40;;;5.50;92.40;;;;;;2053413;28;20039;-89
2022/02/20 03:02:04;;;;;;;1.63;0.50;;;5.40;92.40;;;;;;2063288;28;20046;-88
2022/02/20 03:03:05;;;;;;;1.08;0.35;;;5.40;92.40;;;;;;2055040;28;20055;-89
2022/02/20 03:04:05;;;;;;;1.30;0.30;;;5.50;92.40;;;;;;2035379;28;20028;-88
2022/02/20 03:05:06;;;;;;;0.80;0.30;;;5.50;92.40;;;;;;2050359;28;20453;-88
2022/02/20 03:06:12;;;;;;;1.38;0.50;;;5.50;92.40;;;;;;2056263;28;20039;-88
2022/02/20 03:07:13;;;;;;;0.73;0.22;;;5.50;92.40;;;;;;2079356;28;20036;-89
2022/02/20 03:08:14;;;;;;;1.20;0.30;;;5.50;92.40;;;;;;2079416;28;20043;-89
2022/02/20 03:09:15;;;;;;;2.40;0.47;;;5.50;92.40;;;;;;2103980;28;20048;-89
2022/02/20 03:10:15;;;;;;;0.88;0.30;;;5.50;92.40;;;;;;2091965;28;20033;-89
2022/02/20 03:11:17;;;;;;;0.85;0.28;;;5.50;92.40;;;;;;2063386;28;20520;-89
2022/02/20 03:12:17;;;;;;;2.17;0.50;;;5.50;92.40;;;;;;2065892;28;20035;-89
2022/02/20 03:13:18;;;;;;;1.33;0.30;;;5.40;92.30;;;;;;2064808;28;20046;-89
2022/02/20 03:14:20;;;;;;;1.67;0.38;;;5.40;92.30;;;;;;2062304;28;20039;-89
2022/02/20 03:15:21;;;;;;;1.13;0.40;;;5.50;92.40;;;;;;2071218;28;20127;-89
2022/02/20 03:16:22;;;;;;;2.00;0.30;;;5.40;92.30;;;;;;2085018;28;20566;-88
2022/02/20 03:17:23;;;;;;;2.45;0.32;;;5.40;92.30;;;;;;2087034;28;20063;-88
2022/02/20 03:18:23;;;;;;;1.48;0.38;;;5.50;92.30;;;;;;2064294;28;20188;-89
2022/02/20 03:19:24;;;;;;;1.00;0.30;;;5.40;92.30;;;;;;2048864;28;20445;-88
2022/02/20 03:20:25;;;;;;;2.08;0.30;;;5.40;92.30;;;;;;2038204;28;20040;-88
2022/02/20 03:21:25;;;;;;;1.27;0.30;;;5.40;92.30;;;;;;2051076;28;20043;-89
2022/02/20 03:22:26;;;;;;;1.33;0.35;;;5.40;92.30;;;;;;2077332;28;20086;-89
2022/02/20 03:23:27;;;;;;;0.50;0.20;;;5.50;92.40;;;;;;2064412;28;20169;-89
2022/02/20 03:24:28;;;;;;;1.95;0.40;;;5.40;92.30;;;;;;2069831;28;20400;-89
2022/02/20 03:25:28;;;;;;;0.57;0.30;;;5.40;92.30;;;;;;2059269;28;20130;-89
2022/02/20 03:26:29;;;;;;;1.02;0.20;;;5.40;92.30;;;;;;2044339;28;20117;-88
2022/02/20 03:27:30;;;;;;;0.70;0.20;;;5.50;92.40;;;;;;2062254;28;20144;-89
2022/02/20 03:28:30;;;;;;;0.90;0.25;;;5.40;92.30;;;;;;2077004;28;20133;-88
2022/02/20 03:29:31;;;;;;;2.20;0.30;;;5.40;92.30;;;;;;2085081;28;20036;-89
2022/02/20 03:30:31;;;;;;;0.32;0.22;;;5.40;92.30;;;;;;2069902;28;20045;-89
2022/02/20 03:31:33;;;;;;;1.83;0.30;;;5.40;92.40;;;;;;2079453;28;20057;-89
2022/02/20 03:32:33;;;;;;;1.30;0.40;;;5.40;92.40;;;;;;2037491;28;20528;-89
2022/02/20 03:33:34;;;;;;;1.42;0.30;;;5.40;92.40;;;;;;2046069;28;20048;-88
2022/02/20 03:34:35;;;;;;;1.17;0.30;;;5.40;92.40;;;;;;2053536;28;20228;-89
2022/02/20 03:35:36;;;;;;;1.25;0.30;;;5.40;92.40;;;;;;2050209;28;20059;-88
2022/02/20 03:36:37;;;;;;;0.63;0.20;;;5.40;92.40;;;;;;2073370;28;20081;-89
2022/02/20 03:37:37;;;;;;;1.42;0.30;;;5.40;92.40;;;;;;2072022;28;20446;-88
2022/02/20 03:38:39;;;;;;;1.73;0.50;;;5.40;92.40;;;;;;2084007;28;20043;-89
2022/02/20 03:39:39;;;;;;;1.63;0.30;;;5.40;92.40;;;;;;2046458;28;20037;-88
2022/02/20 03:40:40;;;;;;;1.38;0.40;;;5.40;92.40;;;;;;2048057;28;20047;-89
2022/02/20 03:41:41;;;;;;;1.38;0.50;;;5.40;92.40;;;;;;2061231;28;20439;-87
2022/02/20 03:42:41;;;;;;;1.85;0.30;;;5.40;92.40;;;;;;2064625;28;20091;-88
2022/02/20 03:43:42;;;;;;;1.23;0.30;;;5.40;92.40;;;;;;2075952;28;20453;-88
2022/02/20 03:44:43;;;;;;;1.55;0.32;;;5.40;92.40;;;;;;2080385;28;20047;-89
2022/02/20 03:45:43;;;;;;;1.23;0.28;;;5.40;92.40;;;;;;2075783;28;20031;-88
2022/02/20 03:46:44;;;;;;;2.83;0.35;;;5.40;92.40;;;;;;2091351;28;20067;-89
2022/02/20 03:47:45;;;;;;;3.70;0.32;;;5.40;92.40;;;;;;2087882;28;20063;-89
2022/02/20 03:48:46;;;;;;;0.30;0.17;;;5.40;92.40;;;;;;2059322;28;20185;-90
2022/02/20 03:49:46;;;;;;;0.93;0.30;;;5.40;92.40;;;;;;2070904;28;20039;-88
2022/02/20 03:50:48;;;;;;;0.73;0.20;;;5.40;92.40;;;;;;2061753;28;20042;-89
2022/02/20 03:51:48;;;;;;;1.05;0.30;;;5.40;92.40;;;;;;2072059;28;20502;-88
2022/02/20 03:52:49;;;;;;;1.70;0.30;;;5.40;92.40;;;;;;2063015;28;20038;-88
2022/02/20 03:53:50;;;;;;;0.57;0.20;;;5.40;92.40;;;;;;2061210;28;20038;-88
2022/02/20 03:54:51;;;;;;;2.28;0.20;;;5.40;92.40;;;;;;2064114;28;20481;-88
2022/02/20 03:55:51;;;;;;;1.58;0.20;;;5.40;92.40;;;;;;2047545;28;20128;-89
2022/02/20 03:56:52;;;;;;;0.80;0.30;;;5.40;92.40;;;;;;2069271;28;20038;-88
2022/02/20 03:57:53;;;;;;;0.88;0.28;;;5.40;92.40;;;;;;2063002;28;20031;-88
2022/02/20 03:58:53;;;;;;;1.92;0.30;;;5.40;92.40;;;;;;2065400;28;20038;-89
2022/02/20 03:59:54;;;;;;;2.70;0.30;;;5.40;92.40;;;;;;2069166;28;20034;-87
2022/02/20 04:00:54;;;;;;;2.03;0.22;;;5.40;92.40;;;;;;2063165;28;20412;-89
2022/02/20 04:01:55;;;;;;;1.73;0.20;;;5.30;92.40;;;;;;2065689;28;20035;-88
2022/02/20 04:02:56;;;;;;;1.30;0.30;;;5.30;92.40;;;;;;2061940;28;20050;-88
2022/02/20 04:03:56;;;;;;;0.90;0.17;;;5.30;92.40;;;;;;2061559;28;20555;-88
2022/02/20 04:04:58;;;;;;;1.17;0.28;;;5.30;92.40;;;;;;2082458;28;20536;-88
2022/02/20 04:05:58;;;;;;;0.93;0.25;;;5.30;92.40;;;;;;2088297;28;20089;-87
2022/02/20 04:06:59;;;;;;;0.30;0.22;;;5.30;92.40;;;;;;2093961;28;20040;-88
2022/02/20 04:08:00;;;;;;;1.45;0.20;;;5.40;92.40;;;;;;2081442;28;20115;-88
2022/02/20 04:09:01;;;;;;;2.55;0.40;;;5.30;92.40;;;;;;2071440;28;20156;-89
2022/02/20 04:10:04;;;;;;;0.65;0.35;;;5.30;92.40;;;;;;2066053;28;20031;-89
2022/02/20 04:11:04;;;;;;;1.23;0.40;;;5.30;92.40;;;;;;2065803;28;20042;-88
2022/02/20 04:12:05;;;;;;;1.17;0.32;;;5.30;92.70;;;;;;2081915;28;20042;-89
2022/02/20 04:13:06;;;;;;;2.17;0.30;;;5.30;92.40;;;;;;2065639;28;20067;-88
2022/02/20 04:14:06;;;;;;;1.17;0.50;;;5.30;92.40;;;;;;2066975;28;20061;-88
2022/02/20 04:15:10;;;;;;;1.55;0.40;;;5.30;92.40;;;;;;2067876;28;20407;-89
2022/02/20 04:16:11;;;;;;;1.52;0.30;;;5.30;92.40;;;;;;2064429;28;20065;-89
2022/02/20 04:17:12;;;;;;;3.25;0.60;;;5.30;92.40;;;;;;2066878;28;20045;-88
2022/02/20 04:18:12;;;;;;;2.42;0.50;;;5.30;92.40;;;;;;2069093;28;20121;-88
2022/02/20 04:19:13;;;;;;;1.77;0.60;;;5.30;92.40;;;;;;2064898;28;20057;-88
2022/02/20 04:20:16;;;;;;;1.02;0.40;;;5.30;92.40;;;;;;2071201;28;20531;-88
2022/02/20 04:21:17;;;;;;;2.97;0.50;;;5.30;92.40;;;;;;2084725;28;20589;-88
2022/02/20 04:22:18;;;;;;;0.60;0.35;;;5.30;92.40;;;;;;2066599;28;20082;-89
2022/02/20 04:23:18;;;;;;;1.42;0.30;;;5.30;92.40;;;;;;2056042;28;20043;-89
2022/02/20 04:24:19;;;;;;;2.17;0.70;;;5.30;92.40;;;;;;2087589;28;20506;-89
2022/02/20 04:25:20;;;;;;;0.40;0.25;;;5.30;92.40;;;;;;2070166;28;20768;-88
2022/02/20 04:26:20;;;;;;;2.20;0.50;;;5.30;92.40;;;;;;2082855;28;20056;-89
2022/02/20 04:27:21;;;;;;;0.82;0.40;;;5.30;92.40;;;;;;2050292;28;20074;-89
2022/02/20 04:28:21;;;;;;;1.90;0.40;;;5.30;92.70;;;;;;2052885;28;20050;-88
2022/02/20 04:29:22;;;;;;;2.13;0.40;;;5.30;92.40;;;;;;2049138;28;20482;-88
2022/02/20 04:30:23;;;;;;;2.00;0.60;;;5.30;92.40;;;;;;2053170;28;20043;-89
2022/02/20 04:31:23;;;;;;;1.52;0.40;;;5.30;92.40;;;;;;2060244;28;20037;-88
2022/02/20 04:32:27;;;;;;;1.05;0.35;;;5.30;92.40;;;;;;2097870;28;20063;-88
2022/02/20 04:33:27;;;;;;;2.13;0.40;;;5.30;92.40;;;;;;2057254;28;20035;-89
2022/02/20 04:34:28;;;;;;;1.10;0.43;;;5.30;92.40;;;;;;2043913;28;20043;-89
2022/02/20 04:35:31;;;;;;;2.10;0.60;;;5.30;92.40;;;;;;2065712;28;20062;-89
2022/02/20 04:36:35;;;;;;;2.05;0.40;;;5.30;92.40;;;;;;2045197;28;20152;-89
2022/02/20 04:37:35;;;;;;;2.90;0.35;;;5.20;92.40;;;;;;2094421;28;20036;-89
2022/02/20 04:38:36;;;;;;;2.17;0.50;;;5.30;92.40;;;;;;2062775;28;20039;-88
2022/02/20 04:39:36;;;;;;;1.42;0.50;;;5.30;92.40;;;;;;2060360;28;20112;-88
2022/02/20 04:40:37;;;;;;;2.33;0.57;;;5.30;92.40;;;;;;2055276;28;20423;-88
2022/02/20 04:41:38;;;;;;;3.05;0.60;;;5.30;92.40;;;;;;2083525;28;20041;-88
2022/02/20 04:42:38;;;;;;;3.72;0.57;;;5.30;92.40;;;;;;2064078;28;20133;-89
2022/02/20 04:43:39;;;;;;;3.00;0.45;;;5.20;92.40;;;;;;2070592;28;20125;-88
2022/02/20 04:44:39;;;;;;;1.45;0.50;;;5.30;92.40;;;;;;2055067;28;20041;-88
2022/02/20 04:45:40;;;;;;;1.90;0.52;;;5.30;92.40;;;;;;2067493;28;20043;-89
2022/02/20 04:46:41;;;;;;;3.10;0.65;;;5.30;92.40;;;;;;2083697;28;20058;-89
2022/02/20 04:47:41;;;;;;;1.83;0.50;;;5.20;92.40;;;;;;2056736;28;20042;-89
2022/02/20 04:48:42;;;;;;;3.05;0.60;;;5.30;92.40;;;;;;2047034;28;20049;-89
2022/02/20 04:49:43;;;;;;;2.88;0.70;;;5.20;92.40;;;;;;2061775;28;20041;-89
2022/02/20 04:50:44;;;;;;;2.88;0.60;;;5.20;92.40;;;;;;2063008;28;20524;-89
2022/02/20 04:51:44;;;;;;;3.50;0.63;;;5.20;92.40;;;;;;2046489;28;20031;-89
2022/02/20 04:52:45;;;;;;;2.17;0.77;;;5.20;92.40;;;;;;2065156;28;20040;-88
2022/02/20 04:53:46;;;;;;;2.58;0.60;;;5.30;92.40;;;;;;2067126;28;20454;-88
2022/02/20 04:54:46;;;;;;;3.13;0.80;;;5.30;92.40;;;;;;2080472;28;20062;-88
2022/02/20 04:55:47;;;;;;;4.07;0.82;;;5.20;92.40;;;;;;2064075;28;20073;-89
2022/02/20 04:56:48;;;;;;;2.65;0.50;;;5.30;92.40;;;;;;2073760;28;20075;-89
2022/02/20 04:57:48;;;;;;;3.97;0.90;;;5.30;92.40;;;;;;2060050;28;20438;-88
2022/02/20 04:58:49;;;;;;;2.08;0.70;;;5.30;92.40;;;;;;2052721;28;20047;-89
2022/02/20 04:59:55;;;;;;;2.55;0.80;;;5.30;92.40;;;;;;2088334;28;20707;-89
2022/02/20 05:00:56;;;;;;;1.27;0.55;;;5.30;92.40;;;;;;2048732;28;20051;-89
2022/02/20 05:01:56;;;;;;;2.95;0.70;;;5.20;92.30;;;;;;2051686;28;20071;-89
2022/02/20 05:02:57;;;;;;;1.60;0.63;;;5.30;92.40;;;;;;2064541;28;20038;-89
2022/02/20 05:03:57;;;;;;;1.65;0.60;;;5.30;92.40;;;;;;2063091;28;20523;-88
2022/02/20 05:04:58;;;;;;;1.15;0.55;;;5.30;92.40;;;;;;2066350;28;20073;-88
2022/02/20 05:05:59;;;;;;;1.90;0.70;;;5.30;92.40;;;;;;2059502;28;20035;-89
2022/02/20 05:06:59;;;;;;;3.30;0.80;;;5.30;92.40;;;;;;2085901;28;20131;-89
2022/02/20 05:08:00;;;;;;;4.07;0.80;;;5.30;92.40;;;;;;2055988;28;20072;-89
2022/02/20 05:09:02;;;;;;;3.03;0.80;;;5.30;92.40;;;;;;2081588;28;20101;-88
2022/02/20 05:10:03;;;;;;;3.15;0.80;;;5.30;92.40;;;;;;2085390;28;20068;-89
2022/02/20 05:11:04;;;;;;;3.95;1.02;;;5.30;92.40;;;;;;2075118;28;20073;-88
2022/02/20 05:12:05;;;;;;;2.60;0.95;;;5.30;92.40;;;;;;2060820;28;20042;-89
2022/02/20 05:13:06;;;;;;;2.88;1.05;;;5.30;92.40;;;;;;2076024;28;20046;-89
2022/02/20 05:14:07;;;;;;;4.32;1.15;;;5.20;92.40;;;;;;2055170;28;20532;-89
2022/02/20 05:15:08;;;;;;;3.50;1.08;;;5.30;92.50;;;;;;2062117;28;20108;-89
2022/02/20 05:16:08;;;;;;;1.92;0.90;;;5.30;92.50;;;;;;2053187;28;20035;-88
2022/02/20 05:17:11;;;;;;;2.63;0.82;;;5.20;92.50;;;;;;2045990;28;20040;-89
2022/02/20 05:18:12;;;;;;;3.05;0.88;;;5.20;92.50;;;;;;2039385;28;20040;-88
2022/02/20 05:19:13;;;;;;;4.30;1.17;;;5.20;92.50;;;;;;2045725;28;20027;-88
2022/02/20 05:20:13;;;;;;;2.63;1.20;;;5.20;92.60;;;;;;2080155;28;20028;-88
2022/02/20 05:21:14;;;;;;;3.60;1.35;;;5.20;92.50;;;;;;2046989;28;20035;-89